createdAt,value
2023-10-23T00:02:16.614Z,5.05
2023-10-23T00:04:43.569Z,4.68
2023-10-23T00:07:10.442Z,6.15
2023-10-23T00:09:37.449Z,6.75
2023-10-23T00:12:04.711Z,6.03
2023-10-23T00:14:31.469Z,7.30
2023-10-23T00:16:58.252Z,8.75
2023-10-23T00:19:25.036Z,5.75
2023-10-23T00:21:51.844Z,6.15
2023-10-23T00:24:18.747Z,5.90
2023-10-23T00:26:45.561Z,4.60
2023-10-23T00:29:12.506Z,4.85
2023-10-23T00:31:39.330Z,4.85
2023-10-23T00:34:06.052Z,7.85
2023-10-23T00:36:32.892Z,5.38
2023-10-23T00:38:59.660Z,8.15
2023-10-23T00:41:26.415Z,5.50
2023-10-23T00:43:53.085Z,9.57
2023-10-23T00:46:21.851Z,5.78
2023-10-23T00:48:49.245Z,5.78
2023-10-23T00:51:17.690Z,6.32
2023-10-23T00:53:45.110Z,5.78
2023-10-23T00:56:13.052Z,4.05
2023-10-23T00:58:46.204Z,4.72
2023-10-23T01:01:14.073Z,6.60
2023-10-23T01:03:42.198Z,7.05
2023-10-23T01:06:10.477Z,5.60
2023-10-23T01:08:38.295Z,6.72
2023-10-23T01:11:05.052Z,5.03
2023-10-23T01:13:31.905Z,5.20
2023-10-23T01:15:58.658Z,4.35
2023-10-23T01:18:25.484Z,7.10
2023-10-23T01:20:52.333Z,6.32
2023-10-23T01:23:19.477Z,4.30
2023-10-23T01:25:46.228Z,4.75
2023-10-23T01:28:12.970Z,4.47
2023-10-23T01:30:41.682Z,6.88
2023-10-23T01:33:08.817Z,4.18
2023-10-23T01:35:35.814Z,6.18
2023-10-23T01:38:02.627Z,3.97
2023-10-23T01:40:29.537Z,5.18
2023-10-23T01:42:56.391Z,5.05
2023-10-23T01:45:23.437Z,6.85
2023-10-23T01:47:50.237Z,5.32
2023-10-23T01:50:16.985Z,4.53
2023-10-23T01:52:45.985Z,6.75
2023-10-23T01:55:12.771Z,5.00
2023-10-23T01:57:39.645Z,6.72
2023-10-23T02:00:08.372Z,5.93
2023-10-23T02:02:35.275Z,4.32
2023-10-23T02:05:02.626Z,4.05
2023-10-23T02:07:29.517Z,3.97
2023-10-23T02:09:59.750Z,4.60
2023-10-23T02:12:27.305Z,4.47
2023-10-23T02:14:54.296Z,3.78
2023-10-23T02:17:22.027Z,8.48
2023-10-23T02:19:49.069Z,4.13
2023-10-23T02:22:16.615Z,5.10
2023-10-23T02:24:43.466Z,5.10
2023-10-23T02:27:10.210Z,5.57
2023-10-23T02:29:37.034Z,3.47
2023-10-23T02:32:04.025Z,3.60
2023-10-23T02:34:30.787Z,4.32
2023-10-23T02:36:57.497Z,6.22
2023-10-23T02:39:24.354Z,7.38
2023-10-23T02:41:51.330Z,5.22
2023-10-23T02:44:18.091Z,3.42
2023-10-23T02:46:44.896Z,4.47
2023-10-23T02:49:12.775Z,3.38
2023-10-23T02:51:39.784Z,4.90
2023-10-23T02:54:06.894Z,5.72
2023-10-23T02:56:34.594Z,5.30
2023-10-23T02:59:01.370Z,5.97
2023-10-23T03:01:28.211Z,4.35
2023-10-23T03:03:55.255Z,3.10
2023-10-23T03:06:22.196Z,6.22
2023-10-23T03:08:49.716Z,3.30
2023-10-23T03:11:16.651Z,4.60
2023-10-23T03:13:43.356Z,5.13
2023-10-23T03:16:10.350Z,4.95
2023-10-23T03:18:37.183Z,4.65
2023-10-23T03:21:04.492Z,7.22
2023-10-23T03:23:32.779Z,4.43
2023-10-23T03:26:00.585Z,5.95
2023-10-23T03:28:27.368Z,4.80
2023-10-23T03:30:54.326Z,5.22
2023-10-23T03:33:21.149Z,6.90
2023-10-23T03:35:48.967Z,5.97
2023-10-23T03:38:16.082Z,6.32
2023-10-23T03:40:42.920Z,6.22
2023-10-23T03:43:09.864Z,6.75
2023-10-23T03:45:38.349Z,5.20
2023-10-23T03:48:05.510Z,6.07
2023-10-23T03:50:32.419Z,6.00
2023-10-23T03:52:59.262Z,3.85
2023-10-23T03:55:26.211Z,7.07
2023-10-23T03:57:53.190Z,5.47
2023-10-23T04:00:20.207Z,5.80
2023-10-23T04:02:47.455Z,3.85
2023-10-23T04:05:14.421Z,4.43
2023-10-23T04:07:41.227Z,5.03
2023-10-23T04:10:09.692Z,4.57
2023-10-23T04:12:36.675Z,5.28
2023-10-23T04:15:04.453Z,4.38
2023-10-23T04:17:31.996Z,6.47
2023-10-23T04:19:59.023Z,4.93
2023-10-23T04:22:26.757Z,6.78
2023-10-23T04:24:54.578Z,6.25
2023-10-23T04:27:22.040Z,6.97
2023-10-23T04:29:48.876Z,4.32
2023-10-23T04:32:15.670Z,5.82
2023-10-23T04:34:42.474Z,4.47
2023-10-23T04:37:09.257Z,4.53
2023-10-23T04:39:36.788Z,4.65
2023-10-23T04:42:03.831Z,6.65
2023-10-23T04:44:30.714Z,5.43
2023-10-23T04:46:57.521Z,4.60
2023-10-23T04:49:24.379Z,5.95
2023-10-23T04:51:51.276Z,4.30
2023-10-23T04:54:18.186Z,4.47
2023-10-23T04:56:44.984Z,3.92
2023-10-23T04:59:11.766Z,6.10
2023-10-23T05:01:38.859Z,3.55
2023-10-23T05:04:06.238Z,5.07
2023-10-23T05:06:33.051Z,5.35
2023-10-23T05:08:59.862Z,4.63
2023-10-23T05:11:26.672Z,4.80
2023-10-23T05:13:53.468Z,4.68
2023-10-23T05:16:20.408Z,8.07
2023-10-23T05:18:48.778Z,6.65
2023-10-23T05:21:15.835Z,5.45
2023-10-23T05:23:43.089Z,10.98
2023-10-23T05:26:12.773Z,5.75
2023-10-23T05:28:41.519Z,5.82
2023-10-23T05:31:10.504Z,7.90
2023-10-23T05:33:38.103Z,6.38
2023-10-23T05:36:06.485Z,6.68
2023-10-23T05:38:33.707Z,5.15
2023-10-23T05:41:01.096Z,4.97
2023-10-23T05:43:28.188Z,3.75
2023-10-23T05:45:55.773Z,5.57
2023-10-23T05:48:22.945Z,4.38
2023-10-23T05:51:00.902Z,5.68
2023-10-23T05:53:28.328Z,4.35
2023-10-23T05:55:55.623Z,4.68
2023-10-23T05:58:22.518Z,3.72
2023-10-23T06:00:49.472Z,5.53
2023-10-23T06:03:16.427Z,3.78
2023-10-23T06:05:43.509Z,3.38
2023-10-23T06:08:10.398Z,3.58
2023-10-23T06:10:42.085Z,3.42
2023-10-23T06:13:08.931Z,5.80
2023-10-23T06:15:36.021Z,4.70
2023-10-23T06:18:03.719Z,11.68
2023-10-23T06:20:30.563Z,5.82
2023-10-23T06:22:57.331Z,4.55
2023-10-23T06:25:24.151Z,10.45
2023-10-23T06:27:51.028Z,5.60
2023-10-23T06:30:17.889Z,6.85
2023-10-23T06:32:44.728Z,4.97
2023-10-23T06:35:11.503Z,4.45
2023-10-23T06:37:38.686Z,5.25
2023-10-23T06:40:07.647Z,3.92
2023-10-23T06:42:34.748Z,5.70
2023-10-23T06:45:01.904Z,5.10
2023-10-23T06:47:28.774Z,6.63
2023-10-23T06:49:55.568Z,4.82
2023-10-23T06:52:22.338Z,6.00
2023-10-23T06:54:49.104Z,4.70
2023-10-23T06:57:15.971Z,4.63
2023-10-23T06:59:43.201Z,4.90
2023-10-23T07:02:10.412Z,5.65
2023-10-23T07:04:37.293Z,4.45
2023-10-23T07:07:14.208Z,5.13
2023-10-23T07:09:49.526Z,4.70
2023-10-23T07:12:17.526Z,6.88
2023-10-23T07:14:44.382Z,4.93
2023-10-23T07:17:11.275Z,11.77
2023-10-23T07:19:38.199Z,10.88
2023-10-23T07:22:05.035Z,11.73
2023-10-23T07:24:31.812Z,6.00
2023-10-23T07:26:59.038Z,4.45
2023-10-23T07:29:25.817Z,4.60
2023-10-23T07:31:52.731Z,5.47
2023-10-23T07:34:19.573Z,4.80
2023-10-23T07:36:46.358Z,4.50
2023-10-23T07:39:13.183Z,6.97
2023-10-23T07:41:39.929Z,7.72
2023-10-23T07:44:06.678Z,4.05
2023-10-23T07:46:33.525Z,5.00
2023-10-23T07:49:00.424Z,6.68
2023-10-23T07:51:27.185Z,6.68
2023-10-23T07:53:53.941Z,5.70
2023-10-23T07:56:20.648Z,6.55
2023-10-23T07:58:47.420Z,5.63
2023-10-23T08:01:15.192Z,9.20
2023-10-23T08:03:42.377Z,6.95
2023-10-23T08:06:11.008Z,5.82
2023-10-23T08:08:41.867Z,4.07
2023-10-23T08:11:10.523Z,5.82
2023-10-23T08:13:38.488Z,5.88
2023-10-23T08:16:05.928Z,5.88
2023-10-23T08:18:40.817Z,4.38
2023-10-23T08:21:13.341Z,5.30
2023-10-23T08:23:41.550Z,4.22
2023-10-23T08:26:08.492Z,4.63
2023-10-23T08:28:58.641Z,5.30
2023-10-23T08:31:37.412Z,6.15
2023-10-23T08:34:06.358Z,4.25
2023-10-23T08:36:34.037Z,10.63
2023-10-23T08:39:01.204Z,6.97
2023-10-23T08:41:28.256Z,3.97
2023-10-23T08:43:56.455Z,4.30
2023-10-23T08:46:28.382Z,5.15
2023-10-23T08:48:55.447Z,7.50
2023-10-23T08:51:22.551Z,4.88
2023-10-23T08:54:12.465Z,3.85
2023-10-23T08:56:42.539Z,5.05
2023-10-23T08:59:15.360Z,6.32
2023-10-23T09:01:42.516Z,4.32
2023-10-23T09:04:13.061Z,5.22
2023-10-23T09:06:40.746Z,4.28
2023-10-23T09:09:08.084Z,6.35
2023-10-23T09:11:47.607Z,3.88
2023-10-23T09:14:27.995Z,3.35
2023-10-23T09:16:57.158Z,8.40
2023-10-23T09:19:41.390Z,5.60
2023-10-23T09:22:09.294Z,2.67
2023-10-23T09:24:37.038Z,4.68
2023-10-23T09:27:04.594Z,6.50
2023-10-23T09:29:32.023Z,2.97
2023-10-23T09:32:00.213Z,4.45
2023-10-23T09:34:27.635Z,3.70
2023-10-23T09:36:55.702Z,9.23
2023-10-23T09:39:23.902Z,7.05
2023-10-23T09:41:51.605Z,3.38
2023-10-23T09:44:19.258Z,6.03
2023-10-23T09:46:49.147Z,6.25
2023-10-23T09:49:17.007Z,4.55
2023-10-23T09:51:45.581Z,3.55
2023-10-23T09:54:16.642Z,4.22
2023-10-23T09:56:54.826Z,5.40
2023-10-23T09:59:30.327Z,4.25
2023-10-23T10:02:01.612Z,4.15
2023-10-23T10:04:42.719Z,7.22
2023-10-23T10:07:12.706Z,3.90
2023-10-23T10:09:41.487Z,6.13
2023-10-23T10:12:09.594Z,3.75
2023-10-23T10:14:37.217Z,3.90
2023-10-23T10:17:05.644Z,3.75
2023-10-23T10:19:33.192Z,4.78
2023-10-23T10:22:24.966Z,3.80
2023-10-23T10:24:53.610Z,5.00
2023-10-23T10:27:21.503Z,7.10
2023-10-23T10:29:48.326Z,6.50
2023-10-23T10:32:15.170Z,5.82
2023-10-23T10:34:56.387Z,5.70
2023-10-23T10:37:30.548Z,6.03
2023-10-23T10:39:57.507Z,5.35
2023-10-23T10:42:26.504Z,4.40
2023-10-23T10:44:57.480Z,3.28
2023-10-23T10:47:47.159Z,4.45
2023-10-23T10:50:31.696Z,3.03
2023-10-23T10:53:06.695Z,4.45
2023-10-23T10:55:38.234Z,2.63
2023-10-23T10:58:06.507Z,5.70
2023-10-23T11:00:36.694Z,5.47
2023-10-23T11:03:04.546Z,7.75
2023-10-23T11:05:33.108Z,5.72
2023-10-23T11:08:00.600Z,7.95
2023-10-23T11:10:27.466Z,3.78
2023-10-23T11:12:54.313Z,7.10
2023-10-23T11:15:21.164Z,4.57
2023-10-23T11:17:48.084Z,4.22
2023-10-23T11:20:15.394Z,5.40
2023-10-23T11:22:46.262Z,3.08
2023-10-23T11:25:13.325Z,4.78
2023-10-23T11:27:41.061Z,6.22
2023-10-23T11:30:09.003Z,6.57
2023-10-23T11:32:36.222Z,7.55
2023-10-23T11:35:05.711Z,4.18
2023-10-23T11:37:34.845Z,5.55
2023-10-23T11:40:07.334Z,4.40
2023-10-23T11:42:49.117Z,4.72
2023-10-23T11:45:18.508Z,4.18
2023-10-23T11:47:46.224Z,4.13
2023-10-23T11:50:14.342Z,6.65
2023-10-23T11:52:45.744Z,8.50
2023-10-23T11:55:17.598Z,4.38
2023-10-23T11:57:49.780Z,6.78
2023-10-23T12:00:18.052Z,4.20
2023-10-23T12:02:46.957Z,8.45
2023-10-23T12:05:19.220Z,6.13
2023-10-23T12:07:51.026Z,4.63
2023-10-23T12:10:18.260Z,3.30
2023-10-23T12:12:46.129Z,3.67
2023-10-23T12:15:15.548Z,3.92
2023-10-23T12:17:43.219Z,4.00
2023-10-23T12:20:13.139Z,6.00
2023-10-23T12:22:44.831Z,3.35
2023-10-23T12:25:13.362Z,5.82
2023-10-23T12:27:40.892Z,4.80
2023-10-23T12:30:10.020Z,4.50
2023-10-23T12:33:14.817Z,5.30
2023-10-23T12:35:27.774Z,4.32
2023-10-23T12:37:54.639Z,4.35
2023-10-23T12:40:21.425Z,6.25
2023-10-23T12:42:48.382Z,3.83
2023-10-23T12:45:15.222Z,4.65
2023-10-23T12:47:42.217Z,4.07
2023-10-23T12:50:09.192Z,3.28
2023-10-23T12:52:36.009Z,5.95
2023-10-23T12:55:02.868Z,4.03
2023-10-23T12:57:29.700Z,3.38
2023-10-23T12:59:56.668Z,5.00
2023-10-23T13:02:23.378Z,4.10
2023-10-23T13:04:50.228Z,6.65
2023-10-23T13:07:17.268Z,5.60
2023-10-23T13:09:44.109Z,5.72
2023-10-23T13:12:10.800Z,6.47
2023-10-23T13:14:37.560Z,4.78
2023-10-23T13:17:04.356Z,5.32
2023-10-23T13:19:31.233Z,8.32
2023-10-23T13:21:58.050Z,5.55
2023-10-23T13:24:24.773Z,5.50
2023-10-23T13:26:51.444Z,4.22
2023-10-23T13:29:18.138Z,4.28
2023-10-23T13:31:49.463Z,7.78
2023-10-23T13:34:17.117Z,5.70
2023-10-23T13:36:44.772Z,4.53
2023-10-23T13:39:11.979Z,7.55
2023-10-23T13:41:39.912Z,5.60
2023-10-23T13:44:07.739Z,5.65
2023-10-23T13:46:34.524Z,4.68
2023-10-23T13:49:02.567Z,3.45
2023-10-23T13:51:29.358Z,5.82
2023-10-23T13:53:56.766Z,6.55
2023-10-23T13:56:23.507Z,5.63
2023-10-23T13:58:50.216Z,4.45
2023-10-23T14:01:16.953Z,7.88
2023-10-23T14:03:43.769Z,4.65
2023-10-23T14:06:10.637Z,5.38
2023-10-23T14:09:42.477Z,5.03
2023-10-23T14:11:58.148Z,6.35
2023-10-23T14:14:12.264Z,6.80
2023-10-23T14:16:38.991Z,4.63
2023-10-23T14:19:06.116Z,4.72
2023-10-23T14:21:32.985Z,4.57
2023-10-23T14:23:59.685Z,5.78
2023-10-23T14:26:27.103Z,4.82
2023-10-23T14:28:53.728Z,7.55
2023-10-23T14:31:20.475Z,6.00
2023-10-23T14:33:47.189Z,5.70
2023-10-23T14:36:15.946Z,5.45
2023-10-23T14:38:43.941Z,5.78
2023-10-23T14:41:10.544Z,6.13
2023-10-23T14:43:37.239Z,7.03
2023-10-23T14:46:04.037Z,4.35
2023-10-23T14:48:30.842Z,7.55
2023-10-23T14:50:58.228Z,6.28
2023-10-23T14:53:27.468Z,5.10
2023-10-23T14:55:54.222Z,5.55
2023-10-23T14:58:20.842Z,5.55
2023-10-23T15:00:47.488Z,5.13
2023-10-23T15:03:14.255Z,6.18
2023-10-23T15:05:41.125Z,4.55
2023-10-23T15:08:07.973Z,5.13
2023-10-23T15:10:38.604Z,4.40
2023-10-23T15:13:06.617Z,5.28
2023-10-23T15:15:34.678Z,5.00
2023-10-23T15:18:01.732Z,5.25
2023-10-23T15:20:32.620Z,5.63
2023-10-23T15:22:59.969Z,3.38
2023-10-23T15:25:26.733Z,4.85
2023-10-23T15:27:53.533Z,6.85
2023-10-23T15:30:20.254Z,6.20
2023-10-23T15:32:46.916Z,5.10
2023-10-23T15:35:13.732Z,5.13
2023-10-23T15:37:40.365Z,4.25
2023-10-23T15:40:08.498Z,6.50
2023-10-23T15:42:35.349Z,5.00
2023-10-23T15:45:02.041Z,4.72
2023-10-23T15:47:29.015Z,5.43
2023-10-23T15:49:55.722Z,6.85
2023-10-23T15:52:22.404Z,4.90
2023-10-23T15:54:49.154Z,5.85
2023-10-23T15:57:15.821Z,4.85
2023-10-23T15:59:42.470Z,6.28
2023-10-23T16:02:11.697Z,7.32
2023-10-23T16:04:38.678Z,5.93
2023-10-23T16:07:05.604Z,7.40
2023-10-23T16:09:32.295Z,6.70
2023-10-23T16:12:09.479Z,5.10
2023-10-23T16:14:53.568Z,5.85
2023-10-23T16:17:23.253Z,7.15
2023-10-23T16:19:50.771Z,7.65
2023-10-23T16:22:17.723Z,5.30
2023-10-23T16:24:44.405Z,6.55
2023-10-23T16:27:11.168Z,6.45
2023-10-23T16:29:37.951Z,8.00
2023-10-23T16:32:05.288Z,8.52
2023-10-23T16:34:32.590Z,6.25
2023-10-23T16:36:59.286Z,7.20
2023-10-23T16:39:31.317Z,7.68
2023-10-23T16:41:58.549Z,5.38
2023-10-23T16:44:25.265Z,5.15
2023-10-23T16:46:54.871Z,5.18
2023-10-23T16:49:21.712Z,6.35
2023-10-23T16:51:48.473Z,8.45
2023-10-23T16:54:15.112Z,9.25
2023-10-23T16:56:41.844Z,4.60
2023-10-23T16:59:08.514Z,6.07
2023-10-23T17:01:36.683Z,5.65
2023-10-23T17:04:03.586Z,7.35
2023-10-23T17:06:30.271Z,5.20
2023-10-23T17:08:56.950Z,5.25
2023-10-23T17:11:23.658Z,6.88
2023-10-23T17:13:50.295Z,9.82
2023-10-23T17:16:16.973Z,7.13
2023-10-23T17:18:43.739Z,5.93
2023-10-23T17:21:10.556Z,6.95
2023-10-23T17:23:37.184Z,7.18
2023-10-23T17:26:03.911Z,7.00
2023-10-23T17:28:30.784Z,9.07
2023-10-23T17:31:02.687Z,11.82
2023-10-23T17:33:31.725Z,9.88
2023-10-23T17:35:59.019Z,10.00
2023-10-23T17:38:26.100Z,11.30
2023-10-23T17:40:53.593Z,6.47
2023-10-23T17:43:21.215Z,6.65
2023-10-23T17:45:48.024Z,5.68
2023-10-23T17:48:14.722Z,5.35
2023-10-23T17:50:41.521Z,8.20
2023-10-23T17:53:08.224Z,6.35
2023-10-23T17:55:39.530Z,5.53
2023-10-23T17:58:06.391Z,7.22
2023-10-23T18:00:33.322Z,4.68
2023-10-23T18:03:00.143Z,6.60
2023-10-23T18:05:27.632Z,6.97
2023-10-23T18:07:56.697Z,6.65
2023-10-23T18:10:23.786Z,6.88
2023-10-23T18:12:52.312Z,8.95
2023-10-23T18:15:20.722Z,6.25
2023-10-23T18:17:48.900Z,5.50
2023-10-23T18:20:15.974Z,9.05
2023-10-23T18:22:42.674Z,6.53
2023-10-23T18:25:09.656Z,6.32
2023-10-23T18:27:36.327Z,5.65
2023-10-23T18:30:03.346Z,7.68
2023-10-23T18:32:30.604Z,7.35
2023-10-23T18:34:58.395Z,6.95
2023-10-23T18:37:25.232Z,8.45
2023-10-23T18:39:52.070Z,7.45
2023-10-23T18:42:18.853Z,8.45
2023-10-23T18:44:45.691Z,9.40
2023-10-23T18:47:12.487Z,8.68
2023-10-23T18:49:39.654Z,7.28
2023-10-23T18:52:06.614Z,9.82
2023-10-23T18:54:36.301Z,8.20
2023-10-23T18:57:03.303Z,8.57
2023-10-23T18:59:29.964Z,8.50
2023-10-23T19:01:57.475Z,8.13
2023-10-23T19:04:24.189Z,8.40
2023-10-23T19:06:52.569Z,10.98
2023-10-23T19:09:19.287Z,8.52
2023-10-23T19:11:45.951Z,8.73
2023-10-23T19:14:12.835Z,11.82
2023-10-23T19:16:39.724Z,13.25
2023-10-23T19:19:07.817Z,13.32
2023-10-23T19:21:34.551Z,12.85
2023-10-23T19:24:02.360Z,11.38
2023-10-23T19:26:29.944Z,10.55
2023-10-23T19:28:56.601Z,9.05
2023-10-23T19:31:24.410Z,8.88
2023-10-23T19:33:51.420Z,10.73
2023-10-23T19:36:20.550Z,12.18
2023-10-23T19:38:49.244Z,10.38
2023-10-23T19:41:16.401Z,9.50
2023-10-23T19:43:50.403Z,8.82
2023-10-23T19:46:20.602Z,11.15
2023-10-23T19:51:19.386Z,8.52
2023-10-23T19:53:52.820Z,12.55
2023-10-23T19:56:29.013Z,9.25
2023-10-23T19:58:57.365Z,7.85
2023-10-23T20:01:24.118Z,10.60
2023-10-23T20:03:50.845Z,8.13
2023-10-23T20:06:17.525Z,9.45
2023-10-23T20:08:44.747Z,8.98
2023-10-23T20:11:11.552Z,9.13
2023-10-23T20:13:38.191Z,10.85
2023-10-23T20:16:06.227Z,7.70
2023-10-23T20:18:35.096Z,10.57
2023-10-23T20:21:02.629Z,10.02
2023-10-23T20:23:29.332Z,8.40
2023-10-23T20:25:56.010Z,9.07
2023-10-23T20:28:22.711Z,9.15
2023-10-23T20:30:49.450Z,10.10
2023-10-23T20:33:16.164Z,8.70
2023-10-23T20:35:45.265Z,10.02
2023-10-23T20:38:12.500Z,9.23
2023-10-23T20:40:39.777Z,9.50
2023-10-23T20:43:06.862Z,9.98
2023-10-23T20:45:37.425Z,9.73
2023-10-23T20:48:05.122Z,9.85
2023-10-23T20:50:32.231Z,9.05
2023-10-23T20:52:59.071Z,9.40
2023-10-23T20:55:25.883Z,10.88
2023-10-23T20:57:52.539Z,11.73
2023-10-23T21:00:19.289Z,9.63
2023-10-23T21:02:45.997Z,9.85
2023-10-23T21:05:12.716Z,9.02
2023-10-23T21:07:39.720Z,7.80
2023-10-23T21:10:07.315Z,9.27
2023-10-23T21:12:33.938Z,10.32
2023-10-23T21:15:00.660Z,8.32
2023-10-23T21:17:27.404Z,9.70
2023-10-23T21:19:54.134Z,9.20
2023-10-23T21:22:20.941Z,8.10
2023-10-23T21:24:47.694Z,7.78
2023-10-23T21:27:14.369Z,8.55
2023-10-23T21:29:41.419Z,10.48
2023-10-23T21:32:08.417Z,9.63
2023-10-23T21:34:35.199Z,10.27
2023-10-23T21:37:01.943Z,11.35
2023-10-23T21:39:31.315Z,8.82
2023-10-23T21:41:58.260Z,10.93
2023-10-23T21:44:25.623Z,11.82
2023-10-23T21:46:52.497Z,10.63
2023-10-23T21:49:20.179Z,11.13
2023-10-23T21:51:47.605Z,10.13
2023-10-23T21:54:14.444Z,9.85
2023-10-23T21:57:19.468Z,9.82
2023-10-23T21:59:28.327Z,9.30
2023-10-23T22:01:55.472Z,8.25
2023-10-23T22:04:22.495Z,10.80
2023-10-23T22:06:49.661Z,11.40
2023-10-23T22:09:16.644Z,9.93
2023-10-23T22:11:44.229Z,9.68
2023-10-23T22:14:11.475Z,12.38
2023-10-23T22:16:38.276Z,10.25
2023-10-23T22:19:05.104Z,11.60
2023-10-23T22:21:31.822Z,8.77
2023-10-23T22:23:58.451Z,10.70
2023-10-23T22:26:25.111Z,10.02
2023-10-23T22:28:51.838Z,10.88
2023-10-23T22:31:18.598Z,11.73
2023-10-23T22:33:45.284Z,13.25
2023-10-23T22:36:11.916Z,11.57
2023-10-23T22:38:38.611Z,14.68
2023-10-23T22:41:05.391Z,10.68
2023-10-23T22:43:32.280Z,10.70
2023-10-23T22:46:03.576Z,12.55
2023-10-23T22:48:31.804Z,12.30
2023-10-23T22:50:58.992Z,11.55
2023-10-23T22:53:25.963Z,12.88
2023-10-23T22:55:55.194Z,10.90
2023-10-23T22:58:31.078Z,10.18
2023-10-23T23:00:59.075Z,13.88
2023-10-23T23:03:26.154Z,10.65
2023-10-23T23:05:54.935Z,9.43
2023-10-23T23:08:22.222Z,11.15
2023-10-23T23:10:49.205Z,10.63
2023-10-23T23:13:16.158Z,10.60
2023-10-23T23:15:46.328Z,8.50
2023-10-23T23:20:44.395Z,6.55
2023-10-23T23:23:11.180Z,9.15
2023-10-23T23:25:37.932Z,7.18
2023-10-23T23:28:05.076Z,6.65
2023-10-23T23:30:32.644Z,7.70
2023-10-23T23:32:59.352Z,8.50
2023-10-23T23:35:25.990Z,8.82
2023-10-23T23:37:52.654Z,7.82
2023-10-23T23:40:19.386Z,9.18
2023-10-23T23:42:46.050Z,6.15
2023-10-23T23:45:12.818Z,11.80
2023-10-23T23:47:39.444Z,7.78
2023-10-23T23:50:06.574Z,9.82
2023-10-23T23:52:33.629Z,6.93
2023-10-23T23:55:00.490Z,8.57
2023-10-23T23:57:29.050Z,9.00
2023-10-23T23:59:55.770Z,11.27
